createdAt,value
2022-10-18T00:00:44.171Z,14.60
2022-10-18T00:03:10.590Z,15.32
2022-10-18T00:05:36.965Z,15.20
2022-10-18T00:08:03.478Z,15.75
2022-10-18T00:10:29.923Z,17.17
2022-10-18T00:12:56.294Z,18.83
2022-10-18T00:15:22.653Z,14.98
2022-10-18T00:17:49.082Z,15.63
2022-10-18T00:20:15.537Z,13.18
2022-10-18T00:22:41.992Z,16.35
2022-10-18T00:25:09.174Z,12.98
2022-10-18T00:27:36.183Z,12.88
2022-10-18T00:30:03.665Z,13.50
2022-10-18T00:32:30.173Z,13.90
2022-10-18T00:34:56.892Z,14.60
2022-10-18T00:37:23.192Z,17.83
2022-10-18T00:39:50.054Z,14.38
2022-10-18T00:42:18.371Z,16.67
2022-10-18T00:44:44.789Z,14.05
2022-10-18T00:47:14.421Z,14.50
2022-10-18T00:49:42.466Z,16.38
2022-10-18T00:52:16.820Z,19.95
2022-10-18T00:54:45.035Z,23.05
2022-10-18T00:57:12.666Z,29.35
2022-10-18T00:59:39.929Z,23.48
2022-10-18T01:02:06.829Z,14.45
2022-10-18T01:04:33.686Z,19.05
2022-10-18T01:07:21.553Z,14.00
2022-10-18T01:10:00.255Z,14.60
2022-10-18T01:12:44.678Z,13.43
2022-10-18T01:15:16.149Z,22.15
2022-10-18T01:18:19.993Z,33.50
2022-10-18T01:21:09.017Z,15.75
2022-10-18T01:23:57.464Z,10.82
2022-10-18T01:27:01.181Z,24.73
2022-10-18T01:29:39.800Z,14.25
2022-10-18T01:32:27.630Z,15.43
2022-10-18T01:35:03.380Z,9.98
2022-10-18T01:37:31.694Z,15.75
2022-10-18T01:40:00.638Z,11.68
2022-10-18T01:42:27.796Z,11.88
2022-10-18T01:44:54.888Z,9.70
2022-10-18T01:47:22.002Z,15.80
2022-10-18T01:49:48.587Z,10.25
2022-10-18T01:52:16.621Z,9.10
2022-10-18T01:54:48.966Z,12.27
2022-10-18T01:57:28.939Z,10.25
2022-10-18T02:00:00.707Z,10.07
2022-10-18T02:02:40.050Z,9.38
2022-10-18T02:05:29.134Z,11.60
2022-10-18T02:08:23.386Z,10.30
2022-10-18T02:10:55.794Z,9.52
2022-10-18T02:13:25.543Z,9.80
2022-10-18T02:15:57.488Z,10.27
2022-10-18T02:18:33.078Z,9.25
2022-10-18T02:21:01.756Z,10.25
2022-10-18T02:23:28.285Z,13.15
2022-10-18T02:25:55.143Z,10.73
2022-10-18T02:28:22.125Z,9.52
2022-10-18T02:31:00.064Z,11.98
2022-10-18T02:33:43.401Z,7.95
2022-10-18T02:36:15.586Z,8.55
2022-10-18T02:38:44.781Z,9.57
2022-10-18T02:41:11.653Z,10.77
2022-10-18T02:43:38.144Z,10.40
2022-10-18T02:46:04.579Z,8.30
2022-10-18T02:48:30.969Z,9.25
2022-10-18T02:50:57.377Z,9.02
2022-10-18T02:53:23.769Z,8.10
2022-10-18T02:55:50.099Z,9.70
2022-10-18T02:58:16.456Z,7.85
2022-10-18T03:00:42.833Z,8.98
2022-10-18T03:03:09.205Z,8.38
2022-10-18T03:05:35.591Z,8.75
2022-10-18T03:08:02.283Z,7.82
2022-10-18T03:10:28.618Z,9.82
2022-10-18T03:12:55.079Z,9.45
2022-10-18T03:15:21.468Z,8.10
2022-10-18T03:17:47.797Z,8.80
2022-10-18T03:20:14.254Z,7.97
2022-10-18T03:22:40.778Z,9.27
2022-10-18T03:25:07.410Z,9.90
2022-10-18T03:27:34.069Z,7.30
2022-10-18T03:30:00.928Z,8.23
2022-10-18T03:32:27.277Z,10.65
2022-10-18T03:34:53.634Z,7.25
2022-10-18T03:37:20.006Z,8.30
2022-10-18T03:39:46.330Z,7.28
2022-10-18T03:42:12.715Z,9.00
2022-10-18T03:44:39.071Z,8.30
2022-10-18T03:47:05.441Z,14.65
2022-10-18T03:51:58.068Z,7.22
2022-10-18T03:54:24.443Z,9.80
2022-10-18T03:56:50.947Z,7.35
2022-10-18T03:59:17.693Z,6.00
2022-10-18T04:01:44.280Z,9.18
2022-10-18T04:04:10.913Z,9.45
2022-10-18T04:06:37.241Z,8.02
2022-10-18T04:09:06.529Z,9.20
2022-10-18T04:11:36.450Z,7.07
2022-10-18T04:14:02.915Z,8.95
2022-10-18T04:16:29.408Z,7.28
2022-10-18T04:18:55.830Z,9.85
2022-10-18T04:21:22.340Z,6.75
2022-10-18T04:23:49.634Z,7.53
2022-10-18T04:26:16.678Z,6.17
2022-10-18T04:28:43.881Z,7.88
2022-10-18T04:31:11.407Z,8.30
2022-10-18T04:33:38.641Z,9.05
2022-10-18T04:36:05.543Z,9.82
2022-10-18T04:38:32.029Z,10.23
2022-10-18T04:40:58.601Z,7.57
2022-10-18T04:43:25.092Z,9.48
2022-10-18T04:45:51.486Z,12.18
2022-10-18T04:48:18.210Z,12.15
2022-10-18T04:50:47.476Z,15.50
2022-10-18T04:53:14.042Z,10.95
2022-10-18T04:55:42.893Z,10.20
2022-10-18T04:58:09.529Z,15.68
2022-10-18T05:00:39.962Z,14.00
2022-10-18T05:03:07.308Z,13.37
2022-10-18T05:05:49.995Z,10.13
2022-10-18T05:08:20.673Z,10.27
2022-10-18T05:10:46.999Z,13.35
2022-10-18T05:13:13.462Z,11.85
2022-10-18T05:15:39.839Z,9.60
2022-10-18T05:18:06.187Z,10.50
2022-10-18T05:20:32.609Z,10.57
2022-10-18T05:22:59.035Z,10.80
2022-10-18T05:25:25.648Z,23.85
2022-10-18T05:27:52.125Z,14.60
2022-10-18T05:30:18.683Z,9.30
2022-10-18T05:32:44.991Z,8.02
2022-10-18T05:35:11.358Z,7.88
2022-10-18T05:37:37.690Z,10.85
2022-10-18T05:40:04.566Z,10.90
2022-10-18T05:42:31.162Z,8.60
2022-10-18T05:44:57.711Z,4.10
2022-10-18T05:47:24.183Z,4.82
2022-10-18T05:49:50.621Z,6.28
2022-10-18T05:52:17.617Z,7.90
2022-10-18T05:54:43.979Z,5.78
2022-10-18T05:57:10.314Z,10.45
2022-10-18T05:59:36.651Z,8.70
2022-10-18T06:02:02.986Z,15.18
2022-10-18T06:04:29.364Z,10.40
2022-10-18T06:06:56.174Z,4.53
2022-10-18T06:09:22.634Z,8.55
2022-10-18T06:11:48.986Z,7.75
2022-10-18T06:14:15.409Z,11.95
2022-10-18T06:16:41.769Z,8.77
2022-10-18T06:19:08.112Z,3.70
2022-10-18T06:21:35.014Z,6.68
2022-10-18T06:24:01.419Z,11.98
2022-10-18T06:26:28.789Z,10.02
2022-10-18T06:28:55.430Z,9.80
2022-10-18T06:31:21.882Z,11.95
2022-10-18T06:33:49.180Z,3.50
2022-10-18T06:36:18.864Z,2.58
2022-10-18T06:38:45.319Z,5.43
2022-10-18T06:41:11.759Z,5.50
2022-10-18T06:43:38.220Z,4.82
2022-10-18T06:46:06.829Z,3.78
2022-10-18T06:48:36.770Z,3.35
2022-10-18T06:51:05.829Z,2.78
2022-10-18T06:53:34.391Z,3.37
2022-10-18T06:56:02.183Z,4.15
2022-10-18T06:58:29.721Z,3.25
2022-10-18T07:00:56.764Z,2.95
2022-10-18T07:03:24.085Z,4.47
2022-10-18T07:05:50.569Z,4.07
2022-10-18T07:08:17.695Z,3.72
2022-10-18T07:10:51.979Z,4.43
2022-10-18T07:13:33.974Z,5.18
2022-10-18T07:16:01.557Z,4.03
2022-10-18T07:18:28.364Z,3.07
2022-10-18T07:20:55.213Z,3.08
2022-10-18T07:23:23.707Z,3.00
2022-10-18T07:25:50.683Z,5.18
2022-10-18T07:28:17.022Z,3.28
2022-10-18T07:30:43.698Z,4.53
2022-10-18T07:33:10.104Z,3.95
2022-10-18T07:35:36.559Z,16.25
2022-10-18T07:38:02.905Z,8.95
2022-10-18T07:40:29.225Z,3.63
2022-10-18T07:42:55.652Z,3.13
2022-10-18T07:45:22.172Z,3.70
2022-10-18T07:47:53.699Z,4.47
2022-10-18T07:50:20.243Z,13.23
2022-10-18T07:52:46.596Z,5.10
2022-10-18T07:55:13.115Z,5.73
2022-10-18T07:57:39.878Z,4.82
2022-10-18T08:00:08.753Z,5.32
2022-10-18T08:02:35.427Z,5.82
2022-10-18T08:05:01.768Z,3.97
2022-10-18T08:07:29.375Z,5.53
2022-10-18T08:09:55.784Z,4.70
2022-10-18T08:12:23.037Z,4.22
2022-10-18T08:14:49.372Z,4.45
2022-10-18T08:17:15.860Z,5.50
2022-10-18T08:19:52.842Z,6.93
2022-10-18T08:22:28.545Z,5.47
2022-10-18T08:24:54.907Z,5.97
2022-10-18T08:27:21.296Z,8.00
2022-10-18T08:29:48.051Z,5.28
2022-10-18T08:32:14.598Z,9.82
2022-10-18T08:34:40.966Z,8.60
2022-10-18T08:37:07.281Z,8.30
2022-10-18T08:39:33.636Z,6.63
2022-10-18T08:42:15.261Z,5.68
2022-10-18T08:44:50.961Z,6.18
2022-10-18T08:47:21.617Z,8.75
2022-10-18T08:49:51.115Z,7.65
2022-10-18T08:52:48.828Z,10.23
2022-10-18T08:55:45.040Z,9.80
2022-10-18T08:58:21.635Z,6.65
2022-10-18T09:01:12.609Z,4.70
2022-10-18T09:03:58.596Z,8.07
2022-10-18T09:06:52.891Z,9.43
2022-10-18T09:09:33.392Z,9.13
2022-10-18T09:12:09.042Z,8.25
2022-10-18T09:14:41.500Z,5.60
2022-10-18T09:17:15.692Z,7.28
2022-10-18T09:20:11.951Z,6.43
2022-10-18T09:22:52.982Z,9.63
2022-10-18T09:25:21.488Z,8.68
2022-10-18T09:27:53.285Z,8.63
2022-10-18T09:30:34.819Z,4.22
2022-10-18T09:33:13.246Z,4.80
2022-10-18T09:36:05.061Z,9.73
2022-10-18T09:38:37.815Z,3.40
2022-10-18T09:41:18.516Z,8.13
2022-10-18T09:43:51.410Z,5.63
2022-10-18T09:46:20.401Z,8.23
2022-10-18T09:49:16.419Z,3.60
2022-10-18T09:51:45.371Z,9.68
2022-10-18T09:54:24.442Z,6.93
2022-10-18T09:57:04.444Z,3.88
2022-10-18T09:59:41.830Z,5.50
2022-10-18T10:02:23.896Z,3.90
2022-10-18T10:04:51.701Z,2.47
2022-10-18T10:07:21.399Z,5.27
2022-10-18T10:09:59.429Z,6.63
2022-10-18T10:12:28.037Z,3.92
2022-10-18T10:14:54.495Z,4.53
2022-10-18T10:17:26.248Z,2.63
2022-10-18T10:19:58.848Z,4.00
2022-10-18T10:22:29.075Z,3.67
2022-10-18T10:24:55.687Z,3.38
2022-10-18T10:27:33.065Z,4.45
2022-10-18T10:30:06.835Z,2.63
2022-10-18T10:32:46.842Z,6.77
2022-10-18T10:35:52.704Z,4.25
2022-10-18T10:38:28.033Z,2.42
2022-10-18T10:40:55.475Z,3.00
2022-10-18T10:43:38.734Z,5.80
2022-10-18T10:46:11.774Z,2.47
2022-10-18T10:48:49.281Z,4.65
2022-10-18T10:51:29.461Z,3.78
2022-10-18T10:54:02.921Z,3.00
2022-10-18T10:56:37.214Z,2.90
2022-10-18T10:59:08.691Z,1.80
2022-10-18T11:01:36.399Z,2.80
2022-10-18T11:04:24.321Z,5.68
2022-10-18T11:07:00.844Z,5.25
2022-10-18T11:09:46.356Z,3.13
2022-10-18T11:12:30.839Z,4.47
2022-10-18T11:15:09.922Z,3.45
2022-10-18T11:17:46.352Z,5.38
2022-10-18T11:20:24.780Z,3.78
2022-10-18T11:23:01.059Z,1.80
2022-10-18T11:25:45.938Z,4.30
2022-10-18T11:28:24.321Z,2.72
2022-10-18T11:31:03.557Z,2.70
2022-10-18T11:34:08.784Z,2.97
2022-10-18T11:36:57.903Z,3.42
2022-10-18T11:39:59.218Z,4.17
2022-10-18T11:42:43.736Z,3.15
2022-10-18T11:45:27.831Z,3.70
2022-10-18T11:48:16.847Z,2.33
2022-10-18T11:51:01.362Z,3.58
2022-10-18T11:53:55.863Z,4.77
2022-10-18T11:56:39.020Z,5.35
2022-10-18T11:59:08.795Z,2.50
2022-10-18T12:01:51.611Z,2.00
2022-10-18T12:04:23.244Z,2.47
2022-10-18T12:06:54.541Z,2.83
2022-10-18T12:09:29.775Z,3.22
2022-10-18T12:12:02.683Z,1.10
2022-10-18T12:14:58.172Z,4.13
2022-10-18T12:17:49.921Z,2.65
2022-10-18T12:20:16.745Z,3.50
2022-10-18T12:22:50.083Z,3.47
2022-10-18T12:25:18.074Z,3.08
2022-10-18T12:27:53.061Z,2.58
2022-10-18T12:31:02.926Z,3.70
2022-10-18T12:33:35.967Z,4.10
2022-10-18T12:36:22.964Z,3.28
2022-10-18T12:39:02.702Z,4.60
2022-10-18T12:41:32.442Z,2.40
2022-10-18T12:44:20.965Z,3.58
2022-10-18T12:46:56.291Z,3.07
2022-10-18T12:49:31.708Z,3.58
2022-10-18T12:52:00.835Z,3.22
2022-10-18T12:54:31.680Z,2.85
2022-10-18T12:57:00.166Z,4.72
2022-10-18T12:59:26.776Z,2.17
2022-10-18T13:01:53.251Z,4.32
2022-10-18T13:04:29.203Z,3.45
2022-10-18T13:07:02.999Z,3.88
2022-10-18T13:10:10.800Z,3.75
2022-10-18T13:12:52.103Z,5.97
2022-10-18T13:15:43.627Z,3.67
2022-10-18T13:18:26.721Z,3.08
2022-10-18T13:21:12.768Z,6.15
2022-10-18T13:23:57.822Z,6.43
2022-10-18T13:26:31.837Z,1.70
2022-10-18T13:29:16.585Z,3.80
2022-10-18T13:31:55.433Z,3.40
2022-10-18T13:34:24.905Z,7.45
2022-10-18T13:37:23.958Z,2.13
2022-10-18T13:39:52.097Z,2.23
2022-10-18T13:42:27.563Z,1.65
2022-10-18T13:44:53.932Z,2.35
2022-10-18T13:47:37.332Z,0.98
2022-10-18T13:50:27.935Z,2.50
2022-10-18T13:53:11.670Z,3.10
2022-10-18T13:55:59.824Z,2.05
2022-10-18T13:58:31.283Z,4.68
2022-10-18T14:01:30.176Z,4.30
2022-10-18T14:04:21.711Z,4.88
2022-10-18T14:06:48.723Z,5.03
2022-10-18T14:09:43.750Z,6.03
2022-10-18T14:12:47.680Z,3.67
2022-10-18T14:15:20.869Z,4.38
2022-10-18T14:18:00.083Z,3.92
2022-10-18T14:20:49.477Z,7.67
2022-10-18T14:23:31.294Z,5.97
2022-10-18T14:26:14.955Z,5.75
2022-10-18T14:28:59.137Z,6.13
2022-10-18T14:31:27.019Z,4.13
2022-10-18T14:33:58.043Z,8.30
2022-10-18T14:36:34.681Z,3.85
2022-10-18T14:39:03.574Z,2.40
2022-10-18T14:41:35.418Z,4.97
2022-10-18T14:44:24.508Z,3.70
2022-10-18T14:47:16.308Z,2.63
2022-10-18T14:49:44.786Z,2.50
2022-10-18T14:52:18.160Z,5.72
2022-10-18T14:54:45.097Z,2.65
2022-10-18T14:57:26.662Z,4.40
2022-10-18T14:59:58.027Z,4.03
2022-10-18T15:02:26.220Z,6.43
2022-10-18T15:05:04.790Z,2.20
2022-10-18T15:07:32.587Z,3.63
2022-10-18T15:10:01.116Z,6.03
2022-10-18T15:12:33.903Z,3.97
2022-10-18T15:15:17.155Z,1.88
2022-10-18T15:17:45.083Z,3.78
2022-10-18T15:20:32.419Z,3.40
2022-10-18T15:23:27.874Z,3.67
2022-10-18T15:26:03.824Z,5.47
2022-10-18T15:28:35.975Z,4.85
2022-10-18T15:31:03.387Z,2.42
2022-10-18T15:33:34.418Z,4.85
2022-10-18T15:36:17.487Z,4.35
2022-10-18T15:38:47.495Z,2.93
2022-10-18T15:41:43.420Z,3.67
2022-10-18T15:44:19.839Z,3.90
2022-10-18T15:46:47.677Z,2.40
2022-10-18T15:49:45.026Z,5.82
2022-10-18T15:52:38.590Z,5.60
2022-10-18T15:55:41.935Z,8.88
2022-10-18T15:58:18.563Z,3.22
2022-10-18T16:00:46.506Z,5.82
2022-10-18T16:03:13.877Z,3.00
2022-10-18T16:05:40.727Z,6.73
2022-10-18T16:08:20.604Z,7.20
2022-10-18T16:10:46.954Z,4.70
2022-10-18T16:13:13.289Z,5.25
2022-10-18T16:15:39.809Z,6.13
2022-10-18T16:18:06.149Z,4.97
2022-10-18T16:20:32.484Z,6.40
2022-10-18T16:22:58.856Z,5.65
2022-10-18T16:25:25.424Z,4.50
2022-10-18T16:27:51.826Z,4.50
2022-10-18T16:30:21.001Z,2.67
2022-10-18T16:32:48.902Z,4.53
2022-10-18T16:35:15.593Z,4.40
2022-10-18T16:37:43.194Z,6.13
2022-10-18T16:40:22.849Z,8.25
2022-10-18T16:42:49.352Z,5.07
2022-10-18T16:45:15.900Z,6.32
2022-10-18T16:47:42.625Z,4.25
2022-10-18T16:50:15.118Z,3.83
2022-10-18T16:52:41.733Z,7.53
2022-10-18T16:55:15.373Z,6.47
2022-10-18T16:57:43.218Z,4.45
2022-10-18T17:00:18.972Z,5.15
2022-10-18T17:02:45.471Z,9.02
2022-10-18T17:05:11.932Z,9.02
2022-10-18T17:07:38.710Z,6.13
2022-10-18T17:10:05.761Z,6.82
2022-10-18T17:12:32.582Z,5.50
2022-10-18T17:14:59.287Z,3.88
2022-10-18T17:17:25.639Z,4.70
2022-10-18T17:19:52.047Z,5.10
2022-10-18T17:22:18.429Z,7.30
2022-10-18T17:24:45.005Z,5.68
2022-10-18T17:27:11.572Z,3.45
2022-10-18T17:29:38.020Z,7.30
2022-10-18T17:32:04.676Z,8.63
2022-10-18T17:34:31.156Z,3.88
2022-10-18T17:36:57.825Z,7.65
2022-10-18T17:39:24.530Z,7.50
2022-10-18T17:41:50.992Z,5.35
2022-10-18T17:44:17.431Z,4.63
2022-10-18T17:46:43.965Z,5.78
2022-10-18T17:49:10.591Z,6.18
2022-10-18T17:51:37.269Z,8.38
2022-10-18T17:54:05.845Z,7.13
2022-10-18T17:56:39.514Z,10.00
2022-10-18T17:59:05.946Z,5.47
2022-10-18T18:01:35.467Z,6.80
2022-10-18T18:04:03.600Z,8.90
2022-10-18T18:06:39.593Z,7.07
2022-10-18T18:09:09.162Z,7.05
2022-10-18T18:11:37.958Z,9.90
2022-10-18T18:14:09.998Z,9.00
2022-10-18T18:16:45.357Z,7.63
2022-10-18T18:19:12.406Z,9.67
2022-10-18T18:21:39.901Z,5.95
2022-10-18T18:24:07.179Z,9.02
2022-10-18T18:26:35.209Z,8.35
2022-10-18T18:31:34.404Z,7.35
2022-10-18T18:34:05.040Z,5.72
2022-10-18T18:36:32.514Z,4.20
2022-10-18T18:38:59.418Z,5.50
2022-10-18T18:41:30.187Z,11.50
2022-10-18T18:43:59.301Z,7.85
2022-10-18T18:46:30.585Z,8.05
2022-10-18T18:48:58.162Z,12.90
2022-10-18T18:51:25.224Z,7.35
2022-10-18T18:53:51.726Z,11.65
2022-10-18T18:58:48.517Z,10.68
2022-10-18T19:01:20.781Z,10.50
2022-10-18T19:03:50.836Z,6.22
2022-10-18T19:06:22.454Z,11.15
2022-10-18T19:08:49.724Z,12.02
2022-10-18T19:11:18.746Z,7.82
2022-10-18T19:13:45.609Z,10.02
2022-10-18T19:16:20.756Z,8.45
2022-10-18T19:18:59.646Z,7.70
2022-10-18T19:21:29.726Z,6.20
2022-10-18T19:23:57.902Z,11.15
2022-10-18T19:26:29.283Z,7.78
2022-10-18T19:28:55.747Z,7.32
2022-10-18T19:31:22.986Z,6.47
2022-10-18T19:33:59.393Z,6.83
2022-10-18T19:36:26.671Z,10.65
2022-10-18T19:38:53.266Z,6.45
2022-10-18T19:41:19.960Z,8.90
2022-10-18T19:43:46.748Z,11.55
2022-10-18T19:46:13.102Z,11.37
2022-10-18T19:48:39.475Z,9.32
2022-10-18T19:51:09.355Z,11.95
2022-10-18T19:53:36.284Z,14.40
2022-10-18T19:56:05.353Z,13.40
2022-10-18T19:58:32.636Z,15.17
2022-10-18T20:01:00.295Z,14.18
2022-10-18T20:03:30.348Z,13.60
2022-10-18T20:06:01.125Z,10.68
2022-10-18T20:08:30.874Z,13.80
2022-10-18T20:11:01.863Z,10.20
2022-10-18T20:13:28.599Z,10.70
2022-10-18T20:15:55.067Z,11.55
2022-10-18T20:18:21.619Z,10.98
2022-10-18T20:20:49.177Z,13.45
2022-10-18T20:23:17.086Z,13.83
2022-10-18T20:25:54.868Z,11.23
2022-10-18T20:28:22.627Z,14.50
2022-10-18T20:30:49.021Z,15.73
2022-10-18T20:33:16.107Z,12.30
2022-10-18T20:35:42.701Z,12.57
2022-10-18T20:38:09.192Z,12.02
2022-10-18T20:40:35.646Z,12.65
2022-10-18T20:43:03.808Z,16.73
2022-10-18T20:45:30.361Z,15.40
2022-10-18T20:47:56.753Z,15.77
2022-10-18T20:50:23.128Z,12.50
2022-10-18T20:52:51.259Z,10.57
2022-10-18T20:55:18.817Z,13.05
2022-10-18T20:57:45.169Z,17.83
2022-10-18T21:00:12.882Z,14.33
2022-10-18T21:02:39.290Z,11.52
2022-10-18T21:05:05.949Z,12.48
2022-10-18T21:07:32.508Z,12.82
2022-10-18T21:09:59.082Z,14.48
2022-10-18T21:12:27.570Z,13.17
2022-10-18T21:14:55.383Z,10.52
2022-10-18T21:17:21.803Z,10.65
2022-10-18T21:19:48.259Z,11.18
2022-10-18T21:22:14.604Z,10.77
2022-10-18T21:24:42.418Z,10.77
2022-10-18T21:27:08.965Z,10.07
2022-10-18T21:29:35.312Z,10.50
2022-10-18T21:32:02.728Z,12.13
2022-10-18T21:34:29.090Z,10.90
2022-10-18T21:36:55.535Z,10.40
2022-10-18T21:41:50.715Z,8.98
2022-10-18T21:44:17.663Z,8.82
2022-10-18T21:46:45.146Z,9.98
2022-10-18T21:49:11.743Z,9.77
2022-10-18T21:51:38.724Z,15.30
2022-10-18T21:54:08.637Z,9.73
2022-10-18T21:56:35.939Z,7.97
2022-10-18T21:59:03.511Z,7.88
2022-10-18T22:01:36.361Z,8.47
2022-10-18T22:04:05.531Z,9.85
2022-10-18T22:09:08.329Z,12.48
2022-10-18T22:11:38.807Z,8.68
2022-10-18T22:14:05.348Z,10.77
2022-10-18T22:16:31.710Z,9.60
2022-10-18T22:19:00.761Z,9.80
2022-10-18T22:21:28.235Z,7.40
2022-10-18T22:23:58.905Z,10.15
2022-10-18T22:26:25.235Z,9.80
2022-10-18T22:28:57.259Z,7.57
2022-10-18T22:31:25.905Z,7.80
2022-10-18T22:33:58.287Z,7.00
2022-10-18T22:36:25.791Z,11.10
2022-10-18T22:38:52.420Z,8.23
2022-10-18T22:41:19.114Z,9.07
2022-10-18T22:43:47.592Z,9.10
2022-10-18T22:46:14.996Z,7.82
2022-10-18T22:48:42.181Z,6.80
2022-10-18T22:51:08.737Z,6.57
2022-10-18T22:53:36.291Z,8.35
2022-10-18T22:56:03.781Z,10.77
2022-10-18T22:58:30.580Z,6.05
2022-10-18T23:01:03.100Z,10.07
2022-10-18T23:03:29.540Z,7.30
2022-10-18T23:05:56.259Z,8.48
2022-10-18T23:08:22.820Z,8.60
2022-10-18T23:10:54.052Z,7.32
2022-10-18T23:13:20.556Z,7.60
2022-10-18T23:15:46.899Z,8.33
2022-10-18T23:18:13.246Z,7.65
2022-10-18T23:20:39.606Z,7.55
2022-10-18T23:23:06.086Z,6.75
2022-10-18T23:25:36.420Z,7.07
2022-10-18T23:28:03.582Z,8.60
2022-10-18T23:30:30.629Z,6.07
2022-10-18T23:32:57.027Z,6.93
2022-10-18T23:35:23.669Z,5.05
2022-10-18T23:37:51.206Z,7.45
2022-10-18T23:40:17.578Z,5.93
2022-10-18T23:42:43.920Z,7.05
2022-10-18T23:45:10.545Z,4.70
2022-10-18T23:47:37.004Z,6.47
2022-10-18T23:50:03.811Z,7.85
2022-10-18T23:52:30.140Z,6.30
2022-10-18T23:54:56.509Z,8.40
2022-10-18T23:57:22.931Z,7.28
2022-10-18T23:59:49.437Z,5.88
